Time;durP1;ratioP1;P1;durP2;ratioP2;P2;SDS_P1;SDS_P2;PMS_P1;PMS_P2;Temp;Humidity;BMP_temperature;BMP_pressure;BME280_temperature;BME280_humidity;BME280_pressure;Samples;Min_cycle;Max_cycle;Signal;HPM_P1;HPM_P2
2023/12/21 00:00:57;;;;;;;16.45;2.65;;;;;;;;;;5016852;28;20176;-80
2023/12/21 00:03:22;;;;;;;10.73;2.03;;;;;;;;;;5016520;28;20029;-85
2023/12/21 00:05:47;;;;;;;19.57;3.00;;;;;;;;;;5016302;28;20261;-80
2023/12/21 00:08:13;;;;;;;8.52;2.42;;;;;;;;;;5015821;28;20261;-80
2023/12/21 00:10:38;;;;;;;12.45;2.50;;;;;;;;;;5016223;28;20025;-80
2023/12/21 00:13:03;;;;;;;16.48;2.58;;;;;;;;;;5015820;28;20412;-83
2023/12/21 00:15:29;;;;;;;11.73;2.75;;;;;;;;;;5016558;28;20037;-84
2023/12/21 00:17:54;;;;;;;16.63;2.65;;;;;;;;;;5016099;28;20029;-86
2023/12/21 00:20:20;;;;;;;19.13;2.50;;;;;;;;;;5015919;28;20037;-80
2023/12/21 00:22:45;;;;;;;12.18;2.30;;;;;;;;;;5015997;28;20048;-82
2023/12/21 00:25:11;;;;;;;16.00;2.60;;;;;;;;;;5014632;28;20026;-82
2023/12/21 00:27:36;;;;;;;16.03;2.50;;;;;;;;;;5014860;28;20040;-79
2023/12/21 00:30:01;;;;;;;11.77;2.55;;;;;;;;;;5015962;28;20249;-80
2023/12/21 00:32:26;;;;;;;16.08;2.50;;;;;;;;;;5015633;28;20105;-80
2023/12/21 00:34:52;;;;;;;13.32;2.40;;;;;;;;;;5015776;28;20018;-80
2023/12/21 00:37:17;;;;;;;15.43;2.78;;;;;;;;;;5015593;28;20026;-80
2023/12/21 00:39:42;;;;;;;9.88;1.90;;;;;;;;;;5015748;28;20105;-83
2023/12/21 00:42:07;;;;;;;12.07;2.27;;;;;;;;;;5015640;28;20030;-79
2023/12/21 00:44:32;;;;;;;16.30;2.70;;;;;;;;;;5014560;28;20269;-81
2023/12/21 00:46:58;;;;;;;13.32;2.92;;;;;;;;;;5016581;28;20033;-86
2023/12/21 00:49:23;;;;;;;20.17;2.60;;;;;;;;;;5019433;28;20025;-84
2023/12/21 00:51:48;;;;;;;15.35;2.60;;;;;;;;;;5028850;28;20022;-83
2023/12/21 00:54:13;;;;;;;19.10;2.30;;;;;;;;;;5026344;28;20451;-78
2023/12/21 00:56:38;;;;;;;14.75;3.13;;;;;;;;;;5025189;28;20265;-82
2023/12/21 00:59:04;;;;;;;13.50;2.42;;;;;;;;;;5020104;28;20526;-79
2023/12/21 01:01:29;;;;;;;20.40;3.25;;;;;;;;;;5015461;28;20475;-82
2023/12/21 01:03:55;;;;;;;17.90;3.20;;;;;;;;;;5015291;28;20030;-80
2023/12/21 01:06:20;;;;;;;14.27;2.72;;;;;;;;;;5014601;28;20030;-79
2023/12/21 01:08:45;;;;;;;20.00;2.97;;;;;;;;;;5015221;28;20018;-80
2023/12/21 01:11:10;;;;;;;19.37;5.20;;;;;;;;;;5013724;28;20485;-85
2023/12/21 01:13:36;;;;;;;17.30;3.00;;;;;;;;;;5015124;28;20268;-83
2023/12/21 01:16:01;;;;;;;18.75;2.83;;;;;;;;;;5013527;28;20026;-83
2023/12/21 01:18:26;;;;;;;12.18;2.20;;;;;;;;;;5015087;28;20089;-83
2023/12/21 01:20:52;;;;;;;21.00;3.03;;;;;;;;;;5018022;28;20470;-85
2023/12/21 01:23:17;;;;;;;15.43;3.22;;;;;;;;;;5022624;28;20323;-81
2023/12/21 01:25:42;;;;;;;14.40;2.50;;;;;;;;;;5022623;28;20014;-82
2023/12/21 01:28:07;;;;;;;27.23;3.13;;;;;;;;;;5024752;28;20030;-82
2023/12/21 01:30:32;;;;;;;19.20;2.83;;;;;;;;;;5015269;28;20774;-85
2023/12/21 01:32:58;;;;;;;23.25;3.08;;;;;;;;;;5014782;28;20268;-81
2023/12/21 01:35:23;;;;;;;16.02;3.47;;;;;;;;;;5014418;28;20030;-82
2023/12/21 01:37:48;;;;;;;21.07;3.00;;;;;;;;;;5014592;28;20068;-82
2023/12/21 01:40:14;;;;;;;17.70;3.07;;;;;;;;;;5013662;28;20267;-81
2023/12/21 01:42:40;;;;;;;17.95;2.65;;;;;;;;;;5014497;28;20377;-81
2023/12/21 01:45:05;;;;;;;17.65;3.20;;;;;;;;;;5014649;28;20388;-81
2023/12/21 01:47:31;;;;;;;14.40;2.67;;;;;;;;;;5014434;28;20083;-83
2023/12/21 01:49:56;;;;;;;21.85;4.22;;;;;;;;;;5014169;28;20026;-82
2023/12/21 01:52:21;;;;;;;24.45;3.67;;;;;;;;;;5014063;28;20022;-81
2023/12/21 01:54:46;;;;;;;11.02;3.03;;;;;;;;;;5014316;28;20032;-81
2023/12/21 01:57:12;;;;;;;12.80;2.33;;;;;;;;;;5014519;28;20116;-81
2023/12/21 01:59:38;;;;;;;19.58;2.55;;;;;;;;;;5013768;28;20030;-81
2023/12/21 02:02:03;;;;;;;20.33;3.45;;;;;;;;;;5014092;28;20033;-80
2023/12/21 02:04:28;;;;;;;20.10;2.90;;;;;;;;;;5013857;28;20018;-83
2023/12/21 02:06:54;;;;;;;20.10;2.90;;;;;;;;;;5013688;28;20463;-80
2023/12/21 02:09:19;;;;;;;19.50;2.87;;;;;;;;;;5013957;28;20273;-79
2023/12/21 02:11:45;;;;;;;18.60;3.22;;;;;;;;;;5013879;28;20331;-82
2023/12/21 02:14:11;;;;;;;18.30;2.85;;;;;;;;;;5013564;28;20475;-83
2023/12/21 02:16:49;;;;;;;23.37;3.13;;;;;;;;;;5013856;28;20166;-81
2023/12/21 02:19:15;;;;;;;17.83;3.13;;;;;;;;;;5013313;28;20277;-82
2023/12/21 02:21:41;;;;;;;18.27;3.65;;;;;;;;;;5013436;28;20134;-84
2023/12/21 02:24:19;;;;;;;18.92;2.92;;;;;;;;;;5012345;28;20050;-82
2023/12/21 02:26:44;;;;;;;18.67;3.20;;;;;;;;;;5014162;28;20058;-81
2023/12/21 02:29:09;;;;;;;16.15;3.65;;;;;;;;;;5014134;28;20061;-82
2023/12/21 02:31:35;;;;;;;19.00;2.97;;;;;;;;;;5013987;28;20022;-85
2023/12/21 02:34:00;;;;;;;18.40;3.10;;;;;;;;;;5013630;28;20253;-83
2023/12/21 02:36:26;;;;;;;17.77;4.32;;;;;;;;;;5013501;28;20018;-82
2023/12/21 02:38:52;;;;;;;25.63;3.03;;;;;;;;;;5013444;28;20112;-84
2023/12/21 02:41:17;;;;;;;15.30;3.08;;;;;;;;;;5013387;28;20252;-83
2023/12/21 02:43:42;;;;;;;19.85;3.15;;;;;;;;;;5013288;28;20080;-84
2023/12/21 02:46:07;;;;;;;19.33;3.13;;;;;;;;;;5013405;28;20048;-85
2023/12/21 02:48:32;;;;;;;21.90;2.80;;;;;;;;;;5013404;28;20064;-82
2023/12/21 02:50:59;;;;;;;22.47;3.00;;;;;;;;;;5013440;28;20304;-81
2023/12/21 02:53:24;;;;;;;14.23;3.17;;;;;;;;;;5013040;28;20257;-85
2023/12/21 02:55:50;;;;;;;17.90;2.50;;;;;;;;;;5013103;28;20378;-81
2023/12/21 02:58:15;;;;;;;17.30;3.10;;;;;;;;;;5013553;28;20293;-85
2023/12/21 03:00:40;;;;;;;19.73;3.08;;;;;;;;;;5013579;28;20167;-81
2023/12/21 03:03:05;;;;;;;19.92;2.90;;;;;;;;;;5013009;28;20022;-83
2023/12/21 03:05:31;;;;;;;22.17;2.90;;;;;;;;;;5012779;28;20026;-80
2023/12/21 03:07:56;;;;;;;16.37;2.57;;;;;;;;;;5012791;28;20261;-85
2023/12/21 03:10:21;;;;;;;16.07;3.33;;;;;;;;;;5013250;28;20264;-80
2023/12/21 03:12:46;;;;;;;16.00;3.10;;;;;;;;;;5012763;28;20257;-81
2023/12/21 03:15:11;;;;;;;14.13;3.10;;;;;;;;;;5013213;28;20272;-85
2023/12/21 03:17:37;;;;;;;19.58;2.60;;;;;;;;;;5011829;28;20269;-81
2023/12/21 03:20:03;;;;;;;15.05;2.65;;;;;;;;;;5012586;28;20038;-84
2023/12/21 03:22:28;;;;;;;16.45;2.60;;;;;;;;;;5012742;28;20025;-81
2023/12/21 03:24:53;;;;;;;26.30;2.88;;;;;;;;;;5013049;28;20101;-82
2023/12/21 03:27:19;;;;;;;17.23;3.03;;;;;;;;;;5012999;28;20127;-82
2023/12/21 03:29:44;;;;;;;25.30;3.15;;;;;;;;;;5013656;28;20061;-83
2023/12/21 03:32:09;;;;;;;17.50;3.17;;;;;;;;;;5016925;28;20034;-83
2023/12/21 03:34:34;;;;;;;15.90;2.72;;;;;;;;;;5016616;28;20076;-81
2023/12/21 03:37:00;;;;;;;19.35;3.22;;;;;;;;;;5016718;28;20022;-86
2023/12/21 03:39:25;;;;;;;19.70;2.87;;;;;;;;;;5016654;28;20065;-81
2023/12/21 03:41:50;;;;;;;18.92;3.13;;;;;;;;;;5016137;28;20343;-82
2023/12/21 03:44:15;;;;;;;22.77;3.53;;;;;;;;;;5017570;28;20054;-81
2023/12/21 03:46:40;;;;;;;12.80;2.93;;;;;;;;;;5017435;28;20261;-88
2023/12/21 03:49:06;;;;;;;12.07;2.75;;;;;;;;;;5016725;28;20273;-81
2023/12/21 03:51:31;;;;;;;23.05;3.03;;;;;;;;;;5016665;28;20049;-83
2023/12/21 03:53:56;;;;;;;21.83;3.22;;;;;;;;;;5015939;28;20030;-81
2023/12/21 03:56:21;;;;;;;17.77;2.58;;;;;;;;;;5017805;28;20028;-86
2023/12/21 03:58:47;;;;;;;13.45;2.70;;;;;;;;;;5015470;28;20204;-85
2023/12/21 04:01:12;;;;;;;15.33;2.17;;;;;;;;;;5016693;28;20426;-81
2023/12/21 04:03:37;;;;;;;11.10;2.47;;;;;;;;;;5016469;28;20741;-82
2023/12/21 04:06:02;;;;;;;15.67;2.73;;;;;;;;;;5016301;28;20385;-79
2023/12/21 04:08:27;;;;;;;16.40;2.30;;;;;;;;;;5016803;28;20292;-82
2023/12/21 04:10:53;;;;;;;20.38;3.00;;;;;;;;;;5016483;28;20026;-87
2023/12/21 04:13:18;;;;;;;20.13;2.60;;;;;;;;;;5016208;28;20454;-81
2023/12/21 04:15:43;;;;;;;14.82;2.90;;;;;;;;;;5015817;28;20260;-81
2023/12/21 04:18:09;;;;;;;16.77;2.72;;;;;;;;;;5015693;28;20056;-83
2023/12/21 04:20:34;;;;;;;22.17;3.28;;;;;;;;;;5016591;28;20018;-78
2023/12/21 04:22:59;;;;;;;14.30;3.17;;;;;;;;;;5016147;28;20386;-84
2023/12/21 04:25:24;;;;;;;18.30;2.90;;;;;;;;;;5015521;28;20717;-80
2023/12/21 04:27:50;;;;;;;20.97;2.90;;;;;;;;;;5014917;28;20319;-82
2023/12/21 04:30:15;;;;;;;16.38;2.63;;;;;;;;;;5015473;28;20315;-83
2023/12/21 04:32:41;;;;;;;22.60;2.80;;;;;;;;;;5015563;28;20018;-82
2023/12/21 04:35:07;;;;;;;22.67;2.90;;;;;;;;;;5014385;28;20030;-82
2023/12/21 04:37:32;;;;;;;14.18;2.42;;;;;;;;;;5016375;28;20060;-81
2023/12/21 04:39:58;;;;;;;15.10;3.47;;;;;;;;;;5015487;28;20057;-80
2023/12/21 04:42:23;;;;;;;10.52;2.50;;;;;;;;;;5014991;28;20336;-81
2023/12/21 04:44:48;;;;;;;17.00;2.47;;;;;;;;;;5014142;28;20121;-81
2023/12/21 04:47:13;;;;;;;19.23;2.53;;;;;;;;;;5015674;28;20021;-84
2023/12/21 04:49:39;;;;;;;19.52;3.30;;;;;;;;;;5015686;28;20257;-80
2023/12/21 04:52:04;;;;;;;14.15;2.58;;;;;;;;;;5015461;28;20057;-82
2023/12/21 04:54:30;;;;;;;13.10;2.55;;;;;;;;;;5015932;28;20045;-81
2023/12/21 04:56:55;;;;;;;12.32;2.47;;;;;;;;;;5015213;28;20018;-81
2023/12/21 04:59:20;;;;;;;17.65;2.90;;;;;;;;;;5015631;28;20345;-80
2023/12/21 05:01:50;;;;;;;16.30;2.60;;;;;;;;;;5015530;28;20124;-81
2023/12/21 05:04:15;;;;;;;14.73;2.88;;;;;;;;;;5015877;28;20253;-82
2023/12/21 05:06:40;;;;;;;21.58;2.63;;;;;;;;;;5014820;28;20099;-78
2023/12/21 05:09:05;;;;;;;28.98;3.40;;;;;;;;;;5014629;28;20030;-80
2023/12/21 05:11:31;;;;;;;17.83;3.10;;;;;;;;;;5013454;28;20108;-84
2023/12/21 05:13:56;;;;;;;15.77;2.60;;;;;;;;;;5015272;28;20271;-81
2023/12/21 05:16:21;;;;;;;10.85;2.33;;;;;;;;;;5013665;28;20291;-80
2023/12/21 05:18:49;;;;;;;15.38;2.20;;;;;;;;;;5014719;28;20038;-80
2023/12/21 05:21:14;;;;;;;14.27;2.38;;;;;;;;;;5014670;28;20087;-80
2023/12/21 05:23:39;;;;;;;15.15;2.67;;;;;;;;;;5013916;28;20037;-81
2023/12/21 05:26:11;;;;;;;18.27;3.07;;;;;;;;;;5014784;28;20013;-84
2023/12/21 05:28:38;;;;;;;18.73;2.83;;;;;;;;;;5015086;28;20252;-82
2023/12/21 05:31:04;;;;;;;19.13;2.75;;;;;;;;;;5014641;28;20025;-81
2023/12/21 05:33:29;;;;;;;16.77;2.97;;;;;;;;;;5015270;28;20034;-81
2023/12/21 05:35:54;;;;;;;16.00;3.03;;;;;;;;;;5014417;28;20026;-80
2023/12/21 05:38:19;;;;;;;22.45;2.90;;;;;;;;;;5014456;28;20293;-80
2023/12/21 05:40:44;;;;;;;15.27;2.20;;;;;;;;;;5014148;28;20022;-80
2023/12/21 05:43:10;;;;;;;22.02;3.08;;;;;;;;;;5013706;28;20297;-80
2023/12/21 05:45:35;;;;;;;15.25;3.00;;;;;;;;;;5013739;28;20038;-84
2023/12/21 05:48:00;;;;;;;14.73;2.47;;;;;;;;;;5014457;28;20026;-81
2023/12/21 05:50:26;;;;;;;20.42;3.15;;;;;;;;;;5014170;28;20268;-83
2023/12/21 05:52:51;;;;;;;31.33;3.78;;;;;;;;;;5011557;28;20022;-82
2023/12/21 05:55:16;;;;;;;7.88;2.00;;;;;;;;;;5014172;28;20029;-79
2023/12/21 05:57:43;;;;;;;19.27;3.20;;;;;;;;;;5014428;28;20056;-80
2023/12/21 06:00:09;;;;;;;23.10;3.33;;;;;;;;;;5013865;28;20025;-81
2023/12/21 06:02:34;;;;;;;21.10;2.67;;;;;;;;;;5014083;28;20070;-80
2023/12/21 06:04:59;;;;;;;22.93;3.07;;;;;;;;;;5013913;28;20029;-85
2023/12/21 06:07:24;;;;;;;16.70;2.72;;;;;;;;;;5014047;28;20299;-82
2023/12/21 06:09:50;;;;;;;13.43;2.07;;;;;;;;;;5013776;28;20025;-79
2023/12/21 06:12:15;;;;;;;24.25;3.00;;;;;;;;;;5012762;28;20311;-84
2023/12/21 06:14:40;;;;;;;19.85;2.70;;;;;;;;;;5014151;28;20037;-83
2023/12/21 06:17:06;;;;;;;11.13;2.20;;;;;;;;;;5013781;28;20026;-81
2023/12/21 06:19:31;;;;;;;17.73;3.05;;;;;;;;;;5013654;28;20288;-82
2023/12/21 06:21:56;;;;;;;14.73;2.85;;;;;;;;;;5013743;28;20043;-81
2023/12/21 06:24:21;;;;;;;20.60;3.10;;;;;;;;;;5013760;28;20473;-84
2023/12/21 06:26:47;;;;;;;15.93;2.50;;;;;;;;;;5013761;28;20034;-81
2023/12/21 06:29:12;;;;;;;14.82;2.95;;;;;;;;;;5014037;28;20084;-83
2023/12/21 06:31:37;;;;;;;18.38;3.28;;;;;;;;;;5013285;28;20021;-78
2023/12/21 06:34:03;;;;;;;21.77;2.88;;;;;;;;;;5011520;28;20187;-82
2023/12/21 06:36:28;;;;;;;18.25;2.95;;;;;;;;;;5013231;28;20029;-79
2023/12/21 06:38:53;;;;;;;20.02;2.50;;;;;;;;;;5012920;28;20160;-77
2023/12/21 06:41:20;;;;;;;17.13;2.35;;;;;;;;;;5012968;28;20069;-83
2023/12/21 06:43:45;;;;;;;16.63;2.67;;;;;;;;;;5016641;28;20053;-80
2023/12/21 06:46:12;;;;;;;16.10;2.47;;;;;;;;;;5013044;28;20030;-78
2023/12/21 06:48:37;;;;;;;19.20;2.63;;;;;;;;;;5013127;28;20038;-84
2023/12/21 06:51:02;;;;;;;16.63;2.80;;;;;;;;;;5014408;28;20113;-79
2023/12/21 06:53:27;;;;;;;13.93;2.25;;;;;;;;;;5012979;28;20351;-81
2023/12/21 06:55:52;;;;;;;11.07;2.47;;;;;;;;;;5012952;28;20108;-84
2023/12/21 06:58:18;;;;;;;10.70;2.87;;;;;;;;;;5014429;28;20030;-83
2023/12/21 07:00:43;;;;;;;13.85;2.13;;;;;;;;;;5017971;28;20276;-82
2023/12/21 07:03:08;;;;;;;14.27;2.22;;;;;;;;;;5012682;28;20348;-77
2023/12/21 07:05:33;;;;;;;13.25;2.20;;;;;;;;;;5012511;28;20033;-82
2023/12/21 07:07:59;;;;;;;21.20;3.40;;;;;;;;;;5012002;28;20064;-81
2023/12/21 07:10:24;;;;;;;18.02;2.97;;;;;;;;;;5012384;28;20271;-79
2023/12/21 07:12:49;;;;;;;14.30;2.70;;;;;;;;;;5012668;28;20033;-80
2023/12/21 07:15:16;;;;;;;27.13;3.03;;;;;;;;;;5011314;28;20273;-81
2023/12/21 07:17:41;;;;;;;14.05;2.50;;;;;;;;;;5012754;28;20307;-80
2023/12/21 07:20:07;;;;;;;16.00;3.20;;;;;;;;;;5012910;28;20049;-81
2023/12/21 07:22:32;;;;;;;19.38;2.40;;;;;;;;;;5013022;28;20064;-82
2023/12/21 07:24:57;;;;;;;23.27;2.65;;;;;;;;;;5012862;28;20508;-79
2023/12/21 07:27:23;;;;;;;11.83;3.17;;;;;;;;;;5012686;28;20030;-80
2023/12/21 07:29:49;;;;;;;14.43;3.33;;;;;;;;;;5012634;28;20268;-80
2023/12/21 07:32:15;;;;;;;12.35;2.85;;;;;;;;;;5012466;28;20029;-82
2023/12/21 07:34:40;;;;;;;16.58;2.65;;;;;;;;;;5012542;28;20094;-83
2023/12/21 07:37:07;;;;;;;25.05;3.47;;;;;;;;;;5012593;28;20111;-81
2023/12/21 07:39:32;;;;;;;18.40;2.67;;;;;;;;;;5011247;28;20017;-81
2023/12/21 07:41:57;;;;;;;11.43;2.70;;;;;;;;;;5012630;28;20521;-78
2023/12/21 07:44:23;;;;;;;24.63;3.15;;;;;;;;;;5012880;28;20343;-79
2023/12/21 07:46:48;;;;;;;16.83;2.27;;;;;;;;;;5012522;28;20102;-78
2023/12/21 07:49:13;;;;;;;20.17;3.47;;;;;;;;;;5010742;28;20268;-80
2023/12/21 07:51:38;;;;;;;19.55;2.75;;;;;;;;;;5012631;28;20030;-80
2023/12/21 07:54:04;;;;;;;16.10;2.90;;;;;;;;;;5012599;28;20025;-77
2023/12/21 07:56:29;;;;;;;23.42;3.30;;;;;;;;;;5012718;28;20025;-79
2023/12/21 07:58:54;;;;;;;23.43;2.63;;;;;;;;;;5012344;28;20160;-81
2023/12/21 08:01:19;;;;;;;16.23;3.35;;;;;;;;;;5013008;28;20272;-82
2023/12/21 08:03:45;;;;;;;20.67;2.70;;;;;;;;;;5022591;28;20106;-80
2023/12/21 08:06:19;;;;;;;15.98;2.83;;;;;;;;;;5023546;28;20710;-81
2023/12/21 08:08:45;;;;;;;16.30;3.08;;;;;;;;;;5025387;28;20047;-79
2023/12/21 08:11:10;;;;;;;23.95;3.05;;;;;;;;;;5025206;28;20034;-79
2023/12/21 08:13:36;;;;;;;36.05;4.38;;;;;;;;;;5018739;28;20439;-79
2023/12/21 08:16:01;;;;;;;30.98;3.10;;;;;;;;;;5015679;28;20028;-79
2023/12/21 08:18:26;;;;;;;13.90;2.60;;;;;;;;;;5015365;28;20026;-80
2023/12/21 08:20:52;;;;;;;21.00;3.03;;;;;;;;;;5017292;28;20272;-78
2023/12/21 08:23:17;;;;;;;19.97;2.80;;;;;;;;;;5017719;28;20026;-80
2023/12/21 08:25:42;;;;;;;17.98;3.25;;;;;;;;;;5016995;28;20277;-80
2023/12/21 08:28:07;;;;;;;15.80;2.80;;;;;;;;;;5016926;28;20025;-80
2023/12/21 08:30:32;;;;;;;23.45;3.38;;;;;;;;;;5016399;28;20148;-79
2023/12/21 08:32:58;;;;;;;25.77;3.23;;;;;;;;;;5017343;28;20050;-80
2023/12/21 08:35:23;;;;;;;19.38;2.83;;;;;;;;;;5016540;28;20351;-80
2023/12/21 08:37:48;;;;;;;14.00;2.67;;;;;;;;;;5017136;28;20100;-81
2023/12/21 08:40:14;;;;;;;13.73;2.33;;;;;;;;;;5016982;28;20371;-80
2023/12/21 08:42:40;;;;;;;19.27;3.47;;;;;;;;;;5016607;28;20026;-80
2023/12/21 08:45:06;;;;;;;25.30;3.10;;;;;;;;;;5017067;28;20021;-81
2023/12/21 08:47:40;;;;;;;17.83;3.95;;;;;;;;;;5016517;28;20433;-81
2023/12/21 08:50:06;;;;;;;13.93;3.47;;;;;;;;;;5016433;28;20424;-77
2023/12/21 08:52:32;;;;;;;22.08;3.42;;;;;;;;;;5016164;28;20083;-82
2023/12/21 08:54:57;;;;;;;16.05;3.20;;;;;;;;;;5016309;28;20073;-78
2023/12/21 08:57:22;;;;;;;20.00;2.77;;;;;;;;;;5016226;28;20026;-80
2023/12/21 08:59:48;;;;;;;21.55;2.80;;;;;;;;;;5015060;28;20276;-81
2023/12/21 09:02:13;;;;;;;15.77;2.83;;;;;;;;;;5015991;28;20370;-76
2023/12/21 09:04:39;;;;;;;23.17;3.15;;;;;;;;;;5016328;28;20487;-80
2023/12/21 09:07:04;;;;;;;18.80;2.20;;;;;;;;;;5015624;28;20029;-81
2023/12/21 09:09:29;;;;;;;10.45;2.22;;;;;;;;;;5016350;28;20028;-79
2023/12/21 09:11:54;;;;;;;13.20;2.30;;;;;;;;;;5015884;28;20455;-79
2023/12/21 09:14:22;;;;;;;18.60;2.50;;;;;;;;;;5015674;28;20030;-82
2023/12/21 09:16:47;;;;;;;17.70;2.35;;;;;;;;;;5014701;28;20156;-83
2023/12/21 09:19:12;;;;;;;11.57;2.10;;;;;;;;;;5015321;28;20117;-83
2023/12/21 09:21:37;;;;;;;18.63;2.13;;;;;;;;;;5015236;28;20265;-82
2023/12/21 09:24:03;;;;;;;16.63;2.33;;;;;;;;;;5015564;28;20680;-82
2023/12/21 09:26:28;;;;;;;12.20;2.47;;;;;;;;;;5014854;28;20574;-80
2023/12/21 09:28:53;;;;;;;18.92;2.55;;;;;;;;;;5014622;28;20116;-85
2023/12/21 09:31:19;;;;;;;17.90;2.43;;;;;;;;;;5015429;28;20026;-82
2023/12/21 09:33:44;;;;;;;17.38;2.83;;;;;;;;;;5015620;28;20249;-80
2023/12/21 09:36:09;;;;;;;17.10;3.27;;;;;;;;;;5015081;28;20104;-82
2023/12/21 09:38:34;;;;;;;18.15;3.10;;;;;;;;;;5013681;28;20375;-80
2023/12/21 09:41:00;;;;;;;17.48;2.78;;;;;;;;;;5015573;28;20061;-81
2023/12/21 09:43:25;;;;;;;16.48;2.85;;;;;;;;;;5013224;28;20461;-79
2023/12/21 09:45:53;;;;;;;23.80;2.80;;;;;;;;;;5014809;28;20478;-77
2023/12/21 09:48:20;;;;;;;16.85;2.65;;;;;;;;;;5014577;28;20458;-78
2023/12/21 09:50:49;;;;;;;14.20;2.85;;;;;;;;;;5014620;28;20014;-77
2023/12/21 09:53:15;;;;;;;17.20;3.17;;;;;;;;;;5014633;28;20029;-81
2023/12/21 09:55:44;;;;;;;17.55;2.88;;;;;;;;;;5014551;28;20417;-81
2023/12/21 09:58:11;;;;;;;17.90;3.25;;;;;;;;;;5013893;28;20467;-84
2023/12/21 10:00:37;;;;;;;14.07;2.28;;;;;;;;;;5014506;28;20022;-81
2023/12/21 10:03:03;;;;;;;21.08;4.00;;;;;;;;;;5014219;28;20441;-82
2023/12/21 10:05:29;;;;;;;32.33;3.38;;;;;;;;;;5014246;28;20026;-77
2023/12/21 10:07:54;;;;;;;25.08;3.80;;;;;;;;;;5014300;28;20481;-78
2023/12/21 10:10:20;;;;;;;26.42;3.13;;;;;;;;;;5014247;28;20084;-78
2023/12/21 10:12:45;;;;;;;19.65;2.90;;;;;;;;;;5012611;28;20467;-79
2023/12/21 10:15:11;;;;;;;23.27;3.58;;;;;;;;;;5014819;28;20022;-79
2023/12/21 10:17:36;;;;;;;24.60;3.63;;;;;;;;;;5014030;28;20029;-78
2023/12/21 10:20:03;;;;;;;23.20;3.20;;;;;;;;;;5013909;28;20026;-80
2023/12/21 10:22:28;;;;;;;23.20;2.90;;;;;;;;;;5013770;28;20022;-76
2023/12/21 10:24:54;;;;;;;15.88;4.38;;;;;;;;;;5013989;28;20378;-79
2023/12/21 10:27:21;;;;;;;25.05;3.65;;;;;;;;;;5014032;28;20061;-77
2023/12/21 10:29:53;;;;;;;23.20;3.40;;;;;;;;;;5013868;28;20022;-80
2023/12/21 10:32:18;;;;;;;21.52;2.88;;;;;;;;;;5014104;28;20049;-78
2023/12/21 10:34:44;;;;;;;20.17;3.15;;;;;;;;;;5013933;28;20034;-78
2023/12/21 10:37:09;;;;;;;20.47;2.87;;;;;;;;;;5013983;28;20022;-79
2023/12/21 10:39:34;;;;;;;20.00;3.80;;;;;;;;;;5013327;28;20364;-76
2023/12/21 10:42:00;;;;;;;21.38;3.30;;;;;;;;;;5013713;28;20326;-77
2023/12/21 10:44:25;;;;;;;21.75;3.30;;;;;;;;;;5013404;28;20128;-78
2023/12/21 10:46:50;;;;;;;25.08;3.63;;;;;;;;;;5013943;28;20447;-80
2023/12/21 10:49:16;;;;;;;16.95;2.70;;;;;;;;;;5013356;28;20026;-84
2023/12/21 10:51:43;;;;;;;11.07;2.88;;;;;;;;;;5013674;28;20022;-81
2023/12/21 10:54:09;;;;;;;19.95;3.38;;;;;;;;;;5013713;28;20109;-81
2023/12/21 10:56:39;;;;;;;34.75;4.43;;;;;;;;;;5013525;28;20381;-79
2023/12/21 10:59:05;;;;;;;23.15;3.67;;;;;;;;;;5013474;28;20029;-80
2023/12/21 11:01:32;;;;;;;18.02;2.47;;;;;;;;;;5013408;28;20069;-77
2023/12/21 11:03:59;;;;;;;17.38;2.78;;;;;;;;;;5013577;28;20022;-82
2023/12/21 11:06:25;;;;;;;23.40;2.85;;;;;;;;;;5013475;28;20512;-79
2023/12/21 11:08:51;;;;;;;22.73;4.13;;;;;;;;;;5013341;28;20113;-79
2023/12/21 11:11:19;;;;;;;27.23;4.15;;;;;;;;;;5013150;28;20370;-79
2023/12/21 11:13:46;;;;;;;21.77;2.47;;;;;;;;;;5013129;28;20485;-83
2023/12/21 11:16:13;;;;;;;27.77;3.20;;;;;;;;;;5013522;28;20040;-81
2023/12/21 11:18:39;;;;;;;13.77;2.90;;;;;;;;;;5012999;28;20036;-81
2023/12/21 11:21:05;;;;;;;21.13;3.83;;;;;;;;;;5013384;28;20514;-80
2023/12/21 11:23:31;;;;;;;21.98;3.03;;;;;;;;;;5013131;28;20033;-78
2023/12/21 11:25:57;;;;;;;20.30;2.55;;;;;;;;;;5012081;28;20018;-80
2023/12/21 11:28:27;;;;;;;13.80;2.47;;;;;;;;;;5013805;28;20108;-79
2023/12/21 11:30:53;;;;;;;16.80;3.00;;;;;;;;;;5013618;28;20021;-83
2023/12/21 11:33:26;;;;;;;15.95;2.40;;;;;;;;;;5013160;28;20351;-78
2023/12/21 11:35:53;;;;;;;20.58;2.97;;;;;;;;;;5013196;28;20029;-79
2023/12/21 11:38:19;;;;;;;15.90;3.00;;;;;;;;;;5012992;28;20470;-78
2023/12/21 11:40:47;;;;;;;19.08;2.90;;;;;;;;;;5012908;28;20018;-81
2023/12/21 11:43:19;;;;;;;13.60;2.80;;;;;;;;;;5013041;28;20050;-79
2023/12/21 11:45:47;;;;;;;16.83;2.45;;;;;;;;;;5012944;28;20025;-79
2023/12/21 11:48:16;;;;;;;23.15;3.40;;;;;;;;;;5013191;28;20066;-78
2023/12/21 11:50:43;;;;;;;18.83;2.47;;;;;;;;;;5012876;28;20064;-80
2023/12/21 11:53:08;;;;;;;16.27;2.95;;;;;;;;;;5016770;28;20459;-78
2023/12/21 11:55:40;;;;;;;17.77;2.67;;;;;;;;;;5016833;28;20097;-79
2023/12/21 11:58:26;;;;;;;20.25;4.15;;;;;;;;;;5016685;28;20268;-79
2023/12/21 12:00:52;;;;;;;13.18;3.47;;;;;;;;;;5016517;28;20104;-77
2023/12/21 12:03:18;;;;;;;19.05;2.80;;;;;;;;;;5017036;28;20030;-79
2023/12/21 12:05:44;;;;;;;19.42;2.97;;;;;;;;;;5020741;28;20056;-79
2023/12/21 12:08:09;;;;;;;18.77;2.92;;;;;;;;;;5022474;28;20033;-80
2023/12/21 12:10:35;;;;;;;11.30;3.08;;;;;;;;;;5020013;28;20022;-79
2023/12/21 12:13:01;;;;;;;18.10;3.30;;;;;;;;;;5018861;28;20037;-81
2023/12/21 12:15:27;;;;;;;15.75;2.63;;;;;;;;;;5022612;28;20021;-80
2023/12/21 12:17:52;;;;;;;21.25;2.70;;;;;;;;;;5020146;28;20447;-79
2023/12/21 12:20:18;;;;;;;22.15;3.50;;;;;;;;;;5017785;28;20478;-79
2023/12/21 12:22:44;;;;;;;26.83;4.05;;;;;;;;;;5018040;28;20034;-80
2023/12/21 12:25:10;;;;;;;27.33;3.35;;;;;;;;;;5020278;28;20025;-79
2023/12/21 12:27:35;;;;;;;30.92;3.42;;;;;;;;;;5017429;28;20113;-77
2023/12/21 12:30:00;;;;;;;17.85;3.67;;;;;;;;;;5014937;28;20105;-81
2023/12/21 12:32:26;;;;;;;18.42;2.58;;;;;;;;;;5016627;28;20013;-80
2023/12/21 12:34:51;;;;;;;18.58;3.40;;;;;;;;;;5016781;28;20018;-79
2023/12/21 12:37:19;;;;;;;12.30;2.40;;;;;;;;;;5016746;28;20537;-81
2023/12/21 12:39:47;;;;;;;20.95;3.38;;;;;;;;;;5016519;28;20030;-78
2023/12/21 12:42:12;;;;;;;16.17;2.65;;;;;;;;;;5016606;28;20033;-78
2023/12/21 12:44:38;;;;;;;22.25;3.05;;;;;;;;;;5019682;28;20049;-79
2023/12/21 12:47:05;;;;;;;20.98;3.40;;;;;;;;;;5018983;28;20481;-78
2023/12/21 12:49:33;;;;;;;17.90;2.65;;;;;;;;;;5017632;28;20048;-80
2023/12/21 12:51:58;;;;;;;27.63;3.25;;;;;;;;;;5018293;28;20018;-78
2023/12/21 12:54:28;;;;;;;23.10;2.87;;;;;;;;;;5016641;28;20406;-79
2023/12/21 12:56:54;;;;;;;14.25;2.90;;;;;;;;;;5018349;28;20260;-80
2023/12/21 12:59:19;;;;;;;16.13;3.15;;;;;;;;;;5018179;28;20520;-79
2023/12/21 13:01:44;;;;;;;24.88;4.07;;;;;;;;;;5017475;28;20507;-80
2023/12/21 13:04:11;;;;;;;19.58;3.17;;;;;;;;;;5016368;28;20120;-80
2023/12/21 13:06:37;;;;;;;22.70;3.22;;;;;;;;;;5016424;28;20398;-83
2023/12/21 13:09:02;;;;;;;13.10;2.53;;;;;;;;;;5016886;28;20029;-83
2023/12/21 13:11:27;;;;;;;12.55;2.95;;;;;;;;;;5016924;28;20261;-79
2023/12/21 13:13:53;;;;;;;22.65;2.97;;;;;;;;;;5018668;28;20037;-81
2023/12/21 13:16:18;;;;;;;19.13;2.88;;;;;;;;;;5016085;28;20029;-80
2023/12/21 13:18:44;;;;;;;22.25;3.13;;;;;;;;;;5015929;28;20498;-78
2023/12/21 13:21:09;;;;;;;24.25;3.72;;;;;;;;;;5015965;28;20026;-78
2023/12/21 13:23:35;;;;;;;19.38;3.42;;;;;;;;;;5015881;28;20018;-77
2023/12/21 13:26:00;;;;;;;29.15;3.83;;;;;;;;;;5015408;28;20030;-80
2023/12/21 13:28:25;;;;;;;19.87;3.57;;;;;;;;;;5015183;28;20022;-80
2023/12/21 13:30:50;;;;;;;16.87;3.53;;;;;;;;;;5015872;28;20257;-76
2023/12/21 13:33:17;;;;;;;16.88;3.53;;;;;;;;;;5015808;28;20319;-77
2023/12/21 13:35:43;;;;;;;19.17;3.20;;;;;;;;;;5015158;28;20037;-80
2023/12/21 13:38:08;;;;;;;23.77;3.95;;;;;;;;;;5015267;28;20026;-79
2023/12/21 13:40:33;;;;;;;19.33;3.23;;;;;;;;;;5014518;28;20038;-83
2023/12/21 13:42:59;;;;;;;29.05;4.63;;;;;;;;;;5015089;28;20285;-81
2023/12/21 13:45:24;;;;;;;20.52;3.70;;;;;;;;;;5015068;28;20022;-83
2023/12/21 13:47:50;;;;;;;25.33;3.60;;;;;;;;;;5015231;28;20153;-83
2023/12/21 13:50:15;;;;;;;19.93;3.93;;;;;;;;;;5014055;28;20374;-81
2023/12/21 13:52:40;;;;;;;24.70;4.00;;;;;;;;;;5014974;28;20633;-79
2023/12/21 13:55:06;;;;;;;22.63;4.25;;;;;;;;;;5014984;28;20751;-80
2023/12/21 13:57:31;;;;;;;30.90;4.18;;;;;;;;;;5014877;28;20094;-78
2023/12/21 13:59:57;;;;;;;17.85;3.75;;;;;;;;;;5014987;28;20025;-78
2023/12/21 14:02:23;;;;;;;18.45;3.47;;;;;;;;;;5014982;28;20036;-77
2023/12/21 14:04:48;;;;;;;18.50;3.22;;;;;;;;;;5014888;28;20026;-78
2023/12/21 14:07:13;;;;;;;18.90;3.80;;;;;;;;;;5014693;28;20109;-80
2023/12/21 14:09:39;;;;;;;36.57;7.00;;;;;;;;;;5014833;28;20092;-81
2023/12/21 14:12:04;;;;;;;25.48;4.53;;;;;;;;;;5015265;28;20343;-80
2023/12/21 14:14:30;;;;;;;28.60;4.13;;;;;;;;;;5014388;28;20463;-78
2023/12/21 14:16:55;;;;;;;24.90;3.50;;;;;;;;;;5014614;28;20493;-80
2023/12/21 14:19:20;;;;;;;24.33;3.97;;;;;;;;;;5014405;28;20109;-78
2023/12/21 14:21:45;;;;;;;26.33;4.00;;;;;;;;;;5014500;28;20319;-77